SBSP/CGH METAR and TAF weather

Enter ICAO airport designator
Station Type Date Time Source
SBSP METAR 2020/01/20 22:00 UTC NOAA

SBSP 202200Z 15010KT 9999 SCT011 OVC015 20/17 Q1015


Station Type Date Time Source
SBSP Decoded METAR 2020/01/20 22:00 UTC NOAA

Sao Paulo/Congonhas Aeroporto, Brazil (SBSP) 23-37S 046-39W 802M
Jan 20, 2020 - 05:00 PM EST / 2020.01.20 2200 UTC
Wind: from the SSE (150 degrees) at 12 MPH (10 KT):0
Visibility: greater than 7 mile(s):0
Sky conditions: overcast
Temperature: 68 F (20 C)
Dew Point: 62 F (17 C)
Relative Humidity: 82%
Pressure (altimeter): 29.97 in. Hg (1015 hPa)
ob: SBSP 202200Z 15010KT 9999 SCT011 OVC015 20/17 Q1015
cycle: 22

Station Type Date Time Source
SBSP TAF 2020/01/20 18:33 UTC NOAA

TAF SBSP 201601Z 2018/2106 16010KT 8000 BKN025 TX23/2018Z TN18/2105Z
BECMG 2019/2021 BKN012
BECMG 2021/2023 15010KT
BECMG 2101/2103 13006KT FEW011
RMK PGM

Example: see airport list